Ravalli County (6S5)
Hamilton, MT
Field Elevation: 3642
Lat: 45°15.05N  Long: 114°07.31W
CTAF/Unicom Freq: 122.8000
   
     For Weather-by-Phone, call 406-375-9149
Weather Advisories
2017-11-21   15:39 Z
Altimeter 30.22" Hg
Wind 170° @ 13 KT
Gusts 17 KT
Visibility 10 SM
Temperature 2° C (36° F)
Dewpoint -2° C (28° F)
Relative Humidity 71%
Density Altitude --
Condensation Altitude 5,900 feet
Wind Chill: -3° C (27° F)
Wind and Runways
Indicated Runway = 16
Headwind = 13 kt
Crosswind = 2 kt
History
 
 
 
More Info
NOAA Forecast
 
 
About Us
Belfort Instrument
 
 
FAA Disclaimer: The data displayed is for advisory purposes only and is not to be used for flight planning or operations. For official data, please call 406-375-9149 to hear the current automated AWOS voice message.
  METAR 6S5 211539Z AUTO 17013G17KT 10 SM 02/M02 A3022